Time;durP1;ratioP1;P1;durP2;ratioP2;P2;SDS_P1;SDS_P2;PMS_P1;PMS_P2;Temp;Humidity;BMP_temperature;BMP_pressure;BME280_temperature;BME280_humidity;BME280_pressure;Samples;Min_cycle;Max_cycle;Signal;HPM_P1;HPM_P2
2024/01/15 00:00:23;;;;;;;84.80;57.95;;;0.40;99.90;;;;;;4974020;28;20470;-75
2024/01/15 00:02:49;;;;;;;90.03;55.47;;;0.40;99.90;;;;;;4974335;28;20110;-74
2024/01/15 00:05:15;;;;;;;89.32;57.03;;;0.40;99.90;;;;;;4974077;28;20031;-76
2024/01/15 00:07:41;;;;;;;86.97;56.53;;;0.40;99.90;;;;;;4974042;28;20030;-74
2024/01/15 00:10:07;;;;;;;83.65;56.22;;;0.40;99.90;;;;;;4965354;28;20039;-76
2024/01/15 00:12:33;;;;;;;103.05;67.28;;;0.40;99.90;;;;;;4955806;28;20070;-74
2024/01/15 00:14:59;;;;;;;104.57;67.65;;;0.40;99.90;;;;;;4974060;28;20120;-76
2024/01/15 00:17:25;;;;;;;97.70;64.57;;;0.40;99.90;;;;;;4973941;28;20062;-75
2024/01/15 00:19:51;;;;;;;98.35;65.80;;;0.40;99.90;;;;;;4974085;28;20109;-74
2024/01/15 00:22:17;;;;;;;91.43;63.20;;;0.40;99.90;;;;;;4973906;28;20027;-74
2024/01/15 00:24:43;;;;;;;100.38;67.65;;;0.40;99.90;;;;;;4964454;28;20107;-74
2024/01/15 00:27:09;;;;;;;94.30;62.20;;;0.50;99.90;;;;;;4953075;28;20461;-74
2024/01/15 00:29:35;;;;;;;102.10;67.75;;;0.50;99.90;;;;;;4973765;28;20550;-74
2024/01/15 00:32:01;;;;;;;96.13;65.78;;;0.50;99.90;;;;;;4973800;28;20035;-76
2024/01/15 00:34:27;;;;;;;84.25;58.40;;;0.60;99.90;;;;;;4973980;28;20015;-75
2024/01/15 00:36:52;;;;;;;87.57;60.10;;;0.50;99.90;;;;;;4973720;28;20455;-74
2024/01/15 00:39:18;;;;;;;84.45;57.25;;;0.50;99.90;;;;;;4956353;28;20486;-76
2024/01/15 00:41:44;;;;;;;86.30;58.50;;;0.50;99.90;;;;;;4973875;28;20033;-77
2024/01/15 00:44:10;;;;;;;88.30;58.85;;;0.50;99.90;;;;;;4975617;28;20371;-76
2024/01/15 00:46:45;;;;;;;90.97;61.72;;;0.50;99.90;;;;;;4977293;28;20023;-75
2024/01/15 00:49:13;;;;;;;87.70;57.80;;;0.60;99.90;;;;;;4977425;28;20425;-74
2024/01/15 00:51:39;;;;;;;91.20;62.03;;;0.60;99.90;;;;;;4977344;28;20015;-74
2024/01/15 00:54:05;;;;;;;90.32;59.80;;;0.60;99.90;;;;;;4977402;28;20487;-73
2024/01/15 00:56:31;;;;;;;105.75;70.25;;;0.60;99.90;;;;;;4959676;28;20486;-76
2024/01/15 00:58:57;;;;;;;100.18;65.53;;;0.50;99.90;;;;;;4959733;28;20038;-75
2024/01/15 01:01:23;;;;;;;93.93;61.17;;;0.50;99.90;;;;;;4976862;28;20038;-74
2024/01/15 01:03:49;;;;;;;99.22;61.55;;;0.50;99.90;;;;;;4959565;28;20027;-74
2024/01/15 01:06:15;;;;;;;93.75;62.25;;;0.40;99.90;;;;;;4976703;28;20030;-74
2024/01/15 01:08:51;;;;;;;95.03;62.13;;;0.40;99.90;;;;;;4959630;28;20062;-75
2024/01/15 01:11:17;;;;;;;101.50;66.22;;;0.40;99.90;;;;;;4943312;28;20022;-75
2024/01/15 01:13:43;;;;;;;98.90;65.13;;;0.40;99.90;;;;;;4976709;28;20088;-74
2024/01/15 01:16:09;;;;;;;97.82;64.07;;;0.30;99.90;;;;;;4976633;28;20045;-75
2024/01/15 01:18:39;;;;;;;107.88;71.07;;;0.30;99.90;;;;;;4976786;28;20027;-74
2024/01/15 01:21:05;;;;;;;113.82;70.75;;;0.30;99.90;;;;;;4977049;28;20058;-75
2024/01/15 01:23:31;;;;;;;115.63;72.13;;;0.30;99.90;;;;;;4976573;28;20086;-74
2024/01/15 01:25:57;;;;;;;106.15;72.63;;;0.40;99.90;;;;;;4976759;28;20387;-75
2024/01/15 01:28:23;;;;;;;106.72;68.28;;;0.40;99.90;;;;;;4976551;28;20058;-75
2024/01/15 01:30:49;;;;;;;129.40;76.22;;;0.40;99.90;;;;;;4976451;28;20027;-75
2024/01/15 01:33:15;;;;;;;136.88;76.10;;;0.50;99.90;;;;;;4976079;28;20031;-74
2024/01/15 01:35:41;;;;;;;117.40;64.38;;;0.60;99.90;;;;;;4976445;28;20399;-75
2024/01/15 01:38:07;;;;;;;134.35;71.72;;;0.70;99.90;;;;;;4976209;28;20023;-75
2024/01/15 01:40:32;;;;;;;113.18;62.45;;;0.80;99.90;;;;;;4976145;28;20138;-74
2024/01/15 01:42:58;;;;;;;159.15;79.75;;;1.00;99.90;;;;;;4976468;28;20031;-75
2024/01/15 01:45:24;;;;;;;125.28;66.30;;;1.20;99.90;;;;;;4976331;28;20030;-76
2024/01/15 01:47:50;;;;;;;119.95;65.00;;;1.30;99.90;;;;;;4976304;28;20054;-75
2024/01/15 01:50:17;;;;;;;64.68;40.08;;;1.40;99.90;;;;;;4959144;28;20034;-74
2024/01/15 01:52:43;;;;;;;64.88;41.40;;;1.60;99.90;;;;;;4976178;28;20379;-74
2024/01/15 01:55:10;;;;;;;59.80;38.72;;;1.60;99.90;;;;;;4975886;28;20538;-73
2024/01/15 01:57:37;;;;;;;73.47;44.53;;;1.70;99.90;;;;;;4975530;28;20352;-73
2024/01/15 02:00:04;;;;;;;59.90;36.60;;;1.70;99.90;;;;;;4975784;28;20058;-75
2024/01/15 02:02:37;;;;;;;66.38;42.65;;;1.70;99.90;;;;;;4980861;28;20065;-73
2024/01/15 02:05:05;;;;;;;63.80;38.63;;;1.80;99.90;;;;;;4993943;28;20573;-76
2024/01/15 02:07:41;;;;;;;55.08;33.10;;;1.90;99.90;;;;;;4970222;28;20018;-75
2024/01/15 02:10:07;;;;;;;57.42;35.00;;;2.00;99.90;;;;;;4975777;28;20042;-76
2024/01/15 02:12:33;;;;;;;50.35;29.45;;;2.00;99.90;;;;;;4975106;28;20037;-75
2024/01/15 02:14:59;;;;;;;42.72;25.73;;;2.10;99.90;;;;;;4975606;28;20434;-75
2024/01/15 02:17:25;;;;;;;41.72;23.33;;;2.10;99.90;;;;;;4975811;28;20018;-76
2024/01/15 02:19:51;;;;;;;31.35;19.98;;;2.30;99.90;;;;;;4975456;28;20066;-75
2024/01/15 02:22:16;;;;;;;34.03;19.42;;;2.30;99.90;;;;;;4975388;28;20014;-75
2024/01/15 02:24:42;;;;;;;32.83;19.90;;;2.30;99.90;;;;;;4975760;28;20061;-75
2024/01/15 02:27:08;;;;;;;37.38;20.83;;;2.40;99.90;;;;;;4975115;28;20077;-75
2024/01/15 02:29:35;;;;;;;29.10;16.10;;;2.50;99.90;;;;;;4975186;28;20031;-75
2024/01/15 02:32:05;;;;;;;32.90;18.80;;;2.50;99.90;;;;;;4975135;28;20066;-76
2024/01/15 02:34:34;;;;;;;38.30;21.23;;;2.60;99.90;;;;;;4975143;28;20026;-75
2024/01/15 02:37:00;;;;;;;59.03;31.02;;;2.60;99.90;;;;;;4975297;28;20096;-75
2024/01/15 02:39:26;;;;;;;49.22;24.05;;;2.60;99.90;;;;;;4974721;28;20035;-76
2024/01/15 02:41:51;;;;;;;41.20;25.33;;;2.60;99.90;;;;;;4957593;28;20054;-77
2024/01/15 02:44:17;;;;;;;46.00;25.38;;;2.60;99.90;;;;;;4975560;28;20439;-74
2024/01/15 02:46:43;;;;;;;48.28;28.35;;;2.60;99.90;;;;;;4958003;28;20494;-74
2024/01/15 02:49:09;;;;;;;37.28;21.42;;;2.60;99.90;;;;;;4974958;28;20030;-75
2024/01/15 02:51:35;;;;;;;37.38;19.85;;;2.60;99.90;;;;;;4974969;28;20070;-75
2024/01/15 02:54:01;;;;;;;34.78;20.70;;;2.60;99.90;;;;;;4975256;28;20018;-76
2024/01/15 02:56:26;;;;;;;34.00;18.48;;;2.70;99.90;;;;;;4974850;28;20045;-76
2024/01/15 02:58:52;;;;;;;46.35;26.48;;;2.70;99.90;;;;;;4974694;28;20113;-75
2024/01/15 03:01:20;;;;;;;34.58;18.27;;;2.70;99.90;;;;;;4957335;28;20027;-75
2024/01/15 03:03:46;;;;;;;45.90;26.20;;;2.70;99.90;;;;;;4974951;28;20037;-75
2024/01/15 03:06:12;;;;;;;45.30;25.50;;;2.70;99.90;;;;;;4974319;28;20015;-75
2024/01/15 03:08:38;;;;;;;44.58;25.35;;;2.60;99.90;;;;;;4974858;28;20122;-76
2024/01/15 03:11:03;;;;;;;43.85;25.77;;;2.50;99.90;;;;;;4974276;28;20046;-75
2024/01/15 03:13:29;;;;;;;44.13;27.00;;;2.40;99.90;;;;;;4974415;28;20123;-75
2024/01/15 03:15:55;;;;;;;45.30;26.98;;;2.40;99.90;;;;;;4974218;28;20034;-75
2024/01/15 03:18:21;;;;;;;42.35;25.38;;;2.40;99.90;;;;;;4974322;28;20549;-79
2024/01/15 03:20:47;;;;;;;41.03;24.08;;;2.40;99.90;;;;;;4957007;28;20438;-75
2024/01/15 03:23:13;;;;;;;43.13;23.90;;;2.40;99.90;;;;;;4974419;28;20432;-75
2024/01/15 03:25:38;;;;;;;40.00;21.30;;;2.50;99.90;;;;;;4974271;28;20022;-75
2024/01/15 03:28:05;;;;;;;36.40;21.08;;;2.50;99.90;;;;;;4974212;28;20481;-75
2024/01/15 03:30:30;;;;;;;35.80;20.05;;;2.60;99.90;;;;;;4974138;28;20542;-75
2024/01/15 03:32:56;;;;;;;37.00;20.30;;;2.60;99.90;;;;;;4974418;28;20027;-75
2024/01/15 03:35:22;;;;;;;34.40;21.70;;;2.70;99.90;;;;;;4974183;28;20114;-76
2024/01/15 03:37:48;;;;;;;38.88;23.17;;;2.70;99.90;;;;;;4974159;28;20076;-75
2024/01/15 03:40:14;;;;;;;35.42;22.35;;;2.70;99.90;;;;;;4973793;28;20414;-75
2024/01/15 03:42:40;;;;;;;34.80;21.67;;;2.70;99.90;;;;;;4974392;28;20031;-74
2024/01/15 03:45:06;;;;;;;30.73;17.85;;;2.70;99.90;;;;;;4973392;28;20391;-75
2024/01/15 03:47:40;;;;;;;27.98;16.77;;;2.60;99.90;;;;;;4959227;28;20089;-75
2024/01/15 03:50:06;;;;;;;28.55;16.25;;;2.60;99.90;;;;;;4974202;28;20382;-75
2024/01/15 03:52:32;;;;;;;26.75;15.23;;;2.70;99.90;;;;;;4974123;28;20055;-75
2024/01/15 03:54:58;;;;;;;25.17;14.68;;;2.70;99.90;;;;;;4973957;28;20549;-75
2024/01/15 03:57:26;;;;;;;24.45;13.30;;;2.70;99.90;;;;;;4974315;28;20018;-75
2024/01/15 03:59:57;;;;;;;25.98;13.90;;;2.70;99.90;;;;;;4973497;28;20023;-75
2024/01/15 04:02:23;;;;;;;25.67;13.80;;;2.70;99.90;;;;;;4974118;28;20379;-75
2024/01/15 04:05:00;;;;;;;26.88;15.30;;;2.70;99.90;;;;;;4969179;28;20506;-75
2024/01/15 04:07:25;;;;;;;27.45;15.15;;;2.70;99.90;;;;;;4969099;28;20086;-75
2024/01/15 04:09:51;;;;;;;27.58;16.05;;;2.60;99.90;;;;;;4973931;28;20038;-75
2024/01/15 04:12:17;;;;;;;26.52;16.92;;;2.60;99.90;;;;;;4970271;28;20031;-75
2024/01/15 04:14:43;;;;;;;32.08;16.55;;;2.50;99.90;;;;;;4974014;28;20043;-75
2024/01/15 04:17:14;;;;;;;25.63;15.82;;;2.50;99.90;;;;;;4971362;28;20079;-75
2024/01/15 04:19:43;;;;;;;;;;;2.50;99.90;;;;;;4978315;28;20023;-75
2024/01/15 04:22:09;;;;;;;26.63;15.07;;;2.50;99.90;;;;;;4977584;28;20004;-75
2024/01/15 04:24:35;;;;;;;27.42;14.63;;;2.50;99.90;;;;;;4978025;28;20098;-75
2024/01/15 04:27:01;;;;;;;24.20;13.90;;;2.50;99.90;;;;;;4977771;28;20034;-75
2024/01/15 04:29:27;;;;;;;25.00;13.85;;;2.50;99.90;;;;;;4977620;28;20042;-75
2024/01/15 04:31:53;;;;;;;23.02;12.82;;;2.50;99.90;;;;;;4977368;28;20050;-75
2024/01/15 04:34:19;;;;;;;20.10;11.68;;;2.50;99.90;;;;;;4977821;28;20027;-75
2024/01/15 04:36:45;;;;;;;26.05;14.80;;;2.50;99.90;;;;;;4977499;28;20110;-75
2024/01/15 04:39:11;;;;;;;26.48;14.70;;;2.50;99.90;;;;;;4977166;28;20030;-74
2024/01/15 04:41:37;;;;;;;25.25;14.27;;;2.50;99.90;;;;;;4977699;28;20031;-75
2024/01/15 04:44:03;;;;;;;24.92;13.48;;;2.50;99.90;;;;;;4977602;28;20494;-75
2024/01/15 04:46:29;;;;;;;26.50;14.98;;;2.60;99.90;;;;;;4968876;28;20054;-75
2024/01/15 04:48:55;;;;;;;28.42;14.65;;;2.60;99.90;;;;;;4969210;28;20363;-76
2024/01/15 04:51:21;;;;;;;26.30;14.25;;;2.60;99.90;;;;;;4977131;28;20054;-76
2024/01/15 04:53:47;;;;;;;25.58;13.90;;;2.60;99.90;;;;;;4941687;29;20023;-75
2024/01/15 04:56:13;;;;;;;24.33;13.43;;;2.70;99.90;;;;;;4945763;28;20488;-75
2024/01/15 04:58:38;;;;;;;27.17;14.20;;;2.70;99.90;;;;;;4969909;28;20403;-75
2024/01/15 05:01:04;;;;;;;21.20;13.90;;;2.80;99.90;;;;;;4974038;28;20387;-75
2024/01/15 05:03:30;;;;;;;27.95;15.90;;;2.80;99.90;;;;;;4976940;28;20030;-74
2024/01/15 05:05:56;;;;;;;25.70;14.40;;;2.80;99.90;;;;;;4976584;28;20022;-74
2024/01/15 05:08:22;;;;;;;27.15;14.70;;;2.80;99.90;;;;;;4976663;28;20074;-75
2024/01/15 05:10:48;;;;;;;28.05;14.98;;;2.80;99.90;;;;;;4976450;28;20374;-75
2024/01/15 05:13:14;;;;;;;27.52;16.13;;;2.90;99.90;;;;;;4977256;28;20026;-75
2024/01/15 05:15:40;;;;;;;27.38;15.40;;;2.90;99.90;;;;;;4973945;28;20038;-75
2024/01/15 05:18:06;;;;;;;32.97;18.58;;;3.00;99.90;;;;;;4966758;28;20432;-75
2024/01/15 05:20:34;;;;;;;25.70;13.77;;;3.00;99.90;;;;;;4975193;28;20030;-75
2024/01/15 05:23:00;;;;;;;26.60;14.25;;;3.00;99.90;;;;;;4976151;28;20034;-76
2024/01/15 05:25:26;;;;;;;24.15;14.73;;;3.00;99.90;;;;;;4976292;28;20031;-74
2024/01/15 05:27:57;;;;;;;24.30;14.85;;;3.00;99.90;;;;;;4976663;28;20022;-76
2024/01/15 05:30:23;;;;;;;28.20;15.00;;;3.00;99.90;;;;;;4968456;28;20482;-76
2024/01/15 05:32:49;;;;;;;25.13;14.13;;;3.00;99.90;;;;;;4975965;28;20073;-75
2024/01/15 05:35:15;;;;;;;23.48;12.38;;;3.00;99.90;;;;;;4976494;28;20133;-75
2024/01/15 05:37:44;;;;;;;27.20;15.73;;;3.00;99.90;;;;;;4976199;28;20026;-76
2024/01/15 05:40:11;;;;;;;22.92;13.30;;;3.10;99.90;;;;;;4976107;28;20495;-76
2024/01/15 05:42:38;;;;;;;24.52;14.02;;;3.10;99.90;;;;;;4976091;28;20070;-75
2024/01/15 05:45:05;;;;;;;28.15;15.77;;;3.10;99.90;;;;;;4969409;28;20027;-76
2024/01/15 05:47:31;;;;;;;27.20;15.38;;;3.10;99.90;;;;;;4975651;28;20494;-75
2024/01/15 05:49:57;;;;;;;29.73;15.98;;;3.10;99.90;;;;;;4963915;28;20058;-76
2024/01/15 05:52:23;;;;;;;34.42;18.65;;;3.20;99.90;;;;;;4975527;28;20019;-76
2024/01/15 05:54:50;;;;;;;32.50;17.05;;;3.20;99.90;;;;;;4976165;28;20038;-76
2024/01/15 05:57:16;;;;;;;30.08;17.52;;;3.20;99.90;;;;;;4975741;28;20023;-75
2024/01/15 05:59:44;;;;;;;34.70;18.88;;;3.20;99.90;;;;;;4975793;28;20045;-75
2024/01/15 06:02:10;;;;;;;31.85;17.33;;;3.20;99.90;;;;;;4975876;28;20027;-76
2024/01/15 06:04:36;;;;;;;29.42;16.63;;;3.10;99.90;;;;;;4942650;28;20023;-74
2024/01/15 06:07:02;;;;;;;28.40;15.43;;;3.20;99.90;;;;;;4975622;28;20109;-75
2024/01/15 06:09:28;;;;;;;29.73;15.95;;;3.20;99.90;;;;;;4975796;28;20106;-75
2024/01/15 06:11:55;;;;;;;28.00;16.08;;;3.20;99.90;;;;;;4975965;28;20418;-75
2024/01/15 06:14:21;;;;;;;27.55;15.63;;;3.20;99.90;;;;;;4975772;28;20118;-76
2024/01/15 06:16:47;;;;;;;27.88;16.10;;;3.30;99.90;;;;;;4975785;28;20109;-75
2024/01/15 06:19:13;;;;;;;25.60;15.13;;;3.30;99.90;;;;;;4974978;28;20045;-75
2024/01/15 06:21:44;;;;;;;22.13;13.43;;;3.30;99.90;;;;;;4975655;28;20479;-76
2024/01/15 06:24:10;;;;;;;21.35;13.07;;;3.30;99.90;;;;;;4957869;28;20035;-75
2024/01/15 06:26:39;;;;;;;24.55;14.45;;;3.30;99.90;;;;;;4975816;28;20033;-77
2024/01/15 06:29:05;;;;;;;26.17;14.65;;;3.30;99.90;;;;;;4975037;28;20046;-75
2024/01/15 06:31:31;;;;;;;25.50;15.55;;;3.30;99.90;;;;;;4972628;28;20423;-74
2024/01/15 06:33:56;;;;;;;27.80;15.98;;;3.40;99.90;;;;;;4974918;28;20162;-75
2024/01/15 06:36:22;;;;;;;26.92;14.98;;;3.30;99.90;;;;;;4962838;28;20074;-75
2024/01/15 06:38:48;;;;;;;27.92;14.30;;;3.30;99.90;;;;;;4974353;28;20019;-75
2024/01/15 06:41:14;;;;;;;28.30;15.98;;;3.40;99.90;;;;;;4974474;28;20479;-74
2024/01/15 06:43:40;;;;;;;27.35;16.88;;;3.40;99.90;;;;;;4974763;28;20530;-75
2024/01/15 06:46:06;;;;;;;25.95;16.10;;;3.40;99.90;;;;;;4974993;28;20031;-75
2024/01/15 06:48:32;;;;;;;33.35;19.75;;;3.40;99.90;;;;;;4957588;28;20371;-75
2024/01/15 06:50:57;;;;;;;37.67;23.63;;;3.40;99.90;;;;;;4975207;28;20031;-75
2024/01/15 06:53:26;;;;;;;47.95;28.70;;;3.40;99.90;;;;;;4975006;28;20031;-75
2024/01/15 06:55:52;;;;;;;36.75;22.58;;;3.40;99.90;;;;;;4957001;28;20055;-75
2024/01/15 06:58:18;;;;;;;48.00;28.02;;;3.40;99.90;;;;;;4975108;28;20026;-75
2024/01/15 07:00:45;;;;;;;40.00;23.30;;;3.40;99.90;;;;;;4974760;28;20062;-75
2024/01/15 07:03:10;;;;;;;40.28;26.08;;;3.40;99.90;;;;;;4975147;28;20455;-75
2024/01/15 07:05:37;;;;;;;36.42;22.30;;;3.40;99.90;;;;;;4974671;28;20035;-75
2024/01/15 07:08:03;;;;;;;38.47;23.52;;;3.40;99.90;;;;;;4957215;28;20385;-75
2024/01/15 07:10:29;;;;;;;33.45;21.25;;;3.50;99.90;;;;;;4975042;28;20030;-75
2024/01/15 07:12:55;;;;;;;39.70;23.25;;;3.50;99.90;;;;;;4974394;28;20070;-76
2024/01/15 07:15:21;;;;;;;41.63;26.70;;;3.60;99.90;;;;;;4961814;28;20058;-74
2024/01/15 07:17:47;;;;;;;41.15;25.70;;;3.60;99.90;;;;;;4974127;28;20489;-74
2024/01/15 07:20:13;;;;;;;39.65;22.38;;;3.60;99.90;;;;;;4973574;28;20427;-74
2024/01/15 07:22:45;;;;;;;35.92;23.10;;;3.70;99.90;;;;;;4974510;28;20023;-75
2024/01/15 07:25:12;;;;;;;42.13;25.05;;;3.70;99.90;;;;;;4973904;28;20153;-75
2024/01/15 07:27:38;;;;;;;39.25;24.08;;;3.80;99.90;;;;;;4974744;28;20106;-74
2024/01/15 07:30:06;;;;;;;38.50;24.27;;;3.80;99.90;;;;;;4973807;28;20077;-75
2024/01/15 07:32:32;;;;;;;31.38;19.30;;;3.80;99.90;;;;;;4973679;28;20033;-74
2024/01/15 07:34:59;;;;;;;36.13;21.98;;;3.80;99.90;;;;;;4973841;28;20026;-75
2024/01/15 07:37:25;;;;;;;57.65;32.45;;;3.90;99.90;;;;;;4973234;28;20397;-74
2024/01/15 07:39:51;;;;;;;58.25;33.47;;;4.00;99.90;;;;;;4973335;28;20066;-75
2024/01/15 07:42:17;;;;;;;49.38;27.02;;;4.00;99.90;;;;;;4972749;28;20062;-74
2024/01/15 07:44:43;;;;;;;116.25;59.35;;;4.00;99.90;;;;;;4973322;28;20050;-75
2024/01/15 07:47:09;;;;;;;84.70;45.70;;;4.00;99.90;;;;;;4973356;28;20412;-74
2024/01/15 07:49:35;;;;;;;44.45;28.42;;;4.00;99.90;;;;;;4974053;28;20489;-75
2024/01/15 07:52:01;;;;;;;44.75;29.25;;;4.00;99.90;;;;;;4973981;28;20034;-74
2024/01/15 07:54:27;;;;;;;53.60;33.72;;;4.00;99.90;;;;;;4973869;28;20038;-75
2024/01/15 07:57:05;;;;;;;61.08;37.17;;;4.10;99.90;;;;;;4973374;28;20446;-74
2024/01/15 07:59:31;;;;;;;48.22;28.50;;;4.20;99.90;;;;;;4973800;28;20031;-75
2024/01/15 08:01:59;;;;;;;57.90;34.00;;;4.30;99.90;;;;;;4974033;28;20113;-75
2024/01/15 08:04:25;;;;;;;105.15;59.97;;;4.50;99.90;;;;;;4956617;28;20023;-74
2024/01/15 08:06:51;;;;;;;61.92;40.50;;;4.60;99.90;;;;;;4973734;28;20030;-74
2024/01/15 08:09:17;;;;;;;58.78;37.35;;;4.70;99.90;;;;;;4973226;28;20027;-74
2024/01/15 08:11:43;;;;;;;58.58;37.63;;;4.70;99.90;;;;;;4973669;28;20022;-74
2024/01/15 08:14:10;;;;;;;82.60;42.90;;;4.80;99.90;;;;;;4974030;28;20165;-75
2024/01/15 08:16:37;;;;;;;52.15;32.28;;;4.90;99.90;;;;;;4973159;28;20045;-75
2024/01/15 08:19:03;;;;;;;44.42;28.25;;;4.90;99.90;;;;;;4973595;28;20019;-75
2024/01/15 08:21:29;;;;;;;64.10;39.85;;;4.90;99.90;;;;;;4973972;28;20027;-74
2024/01/15 08:24:00;;;;;;;62.88;39.17;;;4.90;99.90;;;;;;4973910;28;20023;-74
2024/01/15 08:26:25;;;;;;;51.17;33.25;;;4.90;99.90;;;;;;4956125;28;20047;-74
2024/01/15 08:28:51;;;;;;;53.22;35.55;;;4.90;99.90;;;;;;4955459;28;20134;-73
2024/01/15 08:31:17;;;;;;;42.92;30.73;;;5.00;99.90;;;;;;4973620;28;20438;-74
2024/01/15 08:33:43;;;;;;;37.88;24.90;;;4.80;99.90;;;;;;4973612;28;20026;-73
2024/01/15 08:36:09;;;;;;;33.53;22.58;;;5.10;99.90;;;;;;4973508;28;20061;-73
2024/01/15 08:38:35;;;;;;;42.58;27.65;;;5.10;99.90;;;;;;4973358;28;20078;-73
2024/01/15 08:41:01;;;;;;;82.10;49.78;;;5.10;99.90;;;;;;4971644;28;20122;-74
2024/01/15 08:43:27;;;;;;;67.00;40.05;;;5.10;99.90;;;;;;4973259;28;20030;-74
2024/01/15 08:45:53;;;;;;;51.60;32.70;;;5.20;99.90;;;;;;4973785;28;20034;-73
2024/01/15 08:48:20;;;;;;;67.95;43.20;;;5.20;99.90;;;;;;4973187;28;20031;-74
2024/01/15 08:50:45;;;;;;;107.50;70.95;;;5.20;99.90;;;;;;4973698;28;20142;-73
2024/01/15 08:53:12;;;;;;;66.05;43.00;;;5.20;99.90;;;;;;4956216;28;20062;-73
2024/01/15 08:55:38;;;;;;;69.43;42.85;;;5.10;99.90;;;;;;4973784;28;20043;-73
2024/01/15 08:58:04;;;;;;;73.22;47.58;;;5.10;99.90;;;;;;4973164;28;20019;-73
2024/01/15 09:00:30;;;;;;;64.50;42.83;;;5.00;99.90;;;;;;4972848;28;20034;-73
2024/01/15 09:02:56;;;;;;;52.63;35.30;;;5.00;99.90;;;;;;4973440;28;20541;-73
2024/01/15 09:05:22;;;;;;;59.90;41.70;;;4.90;99.90;;;;;;4975510;28;20042;-73
2024/01/15 09:07:48;;;;;;;49.47;34.33;;;5.00;99.90;;;;;;4976924;28;20022;-74
2024/01/15 09:10:14;;;;;;;60.13;39.72;;;5.20;99.90;;;;;;4976233;28;20026;-73
2024/01/15 09:12:40;;;;;;;55.72;34.78;;;5.30;99.90;;;;;;4976540;28;20101;-73
2024/01/15 09:15:08;;;;;;;61.17;40.25;;;5.20;99.90;;;;;;4976923;28;20077;-74
2024/01/15 09:17:34;;;;;;;48.67;30.83;;;5.30;99.90;;;;;;4959385;28;20027;-73
2024/01/15 09:20:00;;;;;;;42.78;28.73;;;5.20;99.90;;;;;;4959376;28;20506;-73
2024/01/15 09:22:26;;;;;;;46.40;30.65;;;5.00;99.90;;;;;;4976659;28;20479;-73
2024/01/15 09:24:53;;;;;;;50.75;32.38;;;5.10;99.90;;;;;;4976924;28;20527;-75
2024/01/15 09:27:19;;;;;;;52.28;32.90;;;5.30;99.90;;;;;;4976047;28;20495;-73
2024/01/15 09:29:46;;;;;;;78.78;38.53;;;5.50;99.90;;;;;;4958855;28;20565;-73
2024/01/15 09:32:12;;;;;;;52.88;32.50;;;5.70;99.90;;;;;;4976450;28;20027;-73
2024/01/15 09:34:38;;;;;;;49.42;31.60;;;5.70;99.90;;;;;;4976430;28;20073;-73
2024/01/15 09:37:05;;;;;;;53.38;33.35;;;5.70;99.90;;;;;;4946232;28;20041;-73
2024/01/15 09:39:31;;;;;;;59.65;36.40;;;5.80;99.90;;;;;;4973405;28;20062;-73
2024/01/15 09:42:00;;;;;;;66.97;38.05;;;5.70;99.90;;;;;;4954946;28;20038;-74
2024/01/15 09:44:28;;;;;;;61.42;41.55;;;5.80;99.90;;;;;;4976496;28;20479;-73
2024/01/15 09:46:55;;;;;;;55.95;39.75;;;5.90;99.90;;;;;;4976223;28;20023;-73
2024/01/15 09:49:21;;;;;;;67.30;44.95;;;6.10;99.90;;;;;;4975852;28;20452;-72
2024/01/15 09:51:48;;;;;;;42.03;29.33;;;6.00;99.90;;;;;;4975591;28;20030;-74
2024/01/15 09:54:29;;;;;;;61.13;41.78;;;5.90;99.90;;;;;;4976094;28;20387;-74
2024/01/15 09:56:55;;;;;;;52.45;34.58;;;6.20;99.90;;;;;;4976251;28;20043;-73
2024/01/15 09:59:24;;;;;;;54.88;32.65;;;6.30;99.90;;;;;;4975809;28;20050;-73
2024/01/15 10:01:51;;;;;;;54.85;36.47;;;6.40;99.90;;;;;;4975304;28;20033;-73
2024/01/15 10:04:23;;;;;;;54.15;34.75;;;6.50;99.90;;;;;;4975750;28;20360;-73
2024/01/15 10:06:52;;;;;;;75.00;50.50;;;6.40;99.90;;;;;;4974733;28;20109;-75
2024/01/15 10:09:18;;;;;;;100.28;59.05;;;6.30;99.90;;;;;;4957855;28;20450;-73
2024/01/15 10:11:44;;;;;;;105.13;56.13;;;6.20;99.90;;;;;;4975536;28;20030;-79
2024/01/15 10:14:14;;;;;;;96.28;57.72;;;6.20;99.90;;;;;;4975443;28;20059;-80
2024/01/15 10:16:41;;;;;;;66.53;39.28;;;6.10;99.90;;;;;;4974807;28;20046;-74
2024/01/15 10:19:10;;;;;;;60.00;35.28;;;6.20;99.90;;;;;;4958181;28;20418;-74
2024/01/15 10:21:37;;;;;;;49.20;32.42;;;6.30;99.90;;;;;;4975823;28;20109;-75
2024/01/15 10:24:08;;;;;;;46.22;28.50;;;6.40;99.90;;;;;;4957564;28;20407;-75
2024/01/15 10:26:37;;;;;;;41.58;27.45;;;6.30;99.90;;;;;;4975102;28;20117;-75
2024/01/15 10:29:03;;;;;;;63.40;39.53;;;6.20;99.90;;;;;;4976126;28;20101;-76
2024/01/15 10:31:29;;;;;;;76.47;46.10;;;6.10;99.90;;;;;;4975514;28;20114;-74
2024/01/15 10:34:21;;;;;;;75.30;51.70;;;6.10;99.90;;;;;;4975257;28;20027;-74
2024/01/15 10:36:55;;;;;;;67.78;45.65;;;6.10;99.90;;;;;;4940172;28;20089;-74
2024/01/15 10:39:24;;;;;;;68.30;46.88;;;6.10;99.90;;;;;;4975012;28;20030;-74
2024/01/15 10:41:51;;;;;;;67.63;47.20;;;6.10;99.90;;;;;;4975222;28;20030;-74
2024/01/15 10:44:20;;;;;;;66.70;45.78;;;6.30;99.90;;;;;;4958042;28;20034;-74
2024/01/15 10:46:47;;;;;;;77.10;48.78;;;6.30;99.90;;;;;;4974682;28;20068;-74
2024/01/15 10:49:13;;;;;;;64.43;42.65;;;6.40;99.90;;;;;;4974834;28;20023;-75
2024/01/15 10:51:44;;;;;;;60.40;43.13;;;6.50;99.90;;;;;;4974983;28;20023;-75
2024/01/15 10:54:11;;;;;;;63.13;41.35;;;6.50;99.90;;;;;;4958269;28;20451;-74
2024/01/15 10:56:39;;;;;;;62.55;42.42;;;6.60;99.90;;;;;;4974132;28;20026;-74
2024/01/15 10:59:05;;;;;;;65.85;45.20;;;6.60;99.90;;;;;;4974866;28;20023;-74
2024/01/15 11:01:31;;;;;;;86.63;62.00;;;6.70;99.90;;;;;;4941507;28;20030;-73
2024/01/15 11:03:57;;;;;;;83.47;57.22;;;6.70;99.90;;;;;;4971321;28;20026;-75
2024/01/15 11:06:25;;;;;;;84.45;60.85;;;6.60;99.90;;;;;;4974266;28;20035;-75
2024/01/15 11:08:52;;;;;;;102.40;71.18;;;6.50;99.90;;;;;;4970435;28;20058;-74
2024/01/15 11:11:20;;;;;;;107.47;72.07;;;6.40;99.90;;;;;;4957459;28;20058;-74
2024/01/15 11:13:49;;;;;;;92.25;61.58;;;6.40;99.90;;;;;;4974090;28;20034;-74
2024/01/15 11:16:16;;;;;;;93.28;64.55;;;6.20;99.90;;;;;;4973127;28;20031;-73
2024/01/15 11:19:01;;;;;;;100.95;66.60;;;6.20;99.90;;;;;;4974069;28;20031;-75
2024/01/15 11:21:29;;;;;;;91.75;60.85;;;6.20;99.90;;;;;;4938166;29;20055;-73
2024/01/15 11:24:02;;;;;;;90.72;60.50;;;6.20;99.90;;;;;;4939026;28;20055;-74
2024/01/15 11:26:34;;;;;;;88.07;62.53;;;6.10;99.90;;;;;;4937676;28;20110;-76
2024/01/15 11:29:09;;;;;;;106.38;74.43;;;6.20;99.90;;;;;;4963543;28;20026;-73
2024/01/15 11:31:41;;;;;;;116.35;77.72;;;6.20;99.90;;;;;;4957176;28;20058;-73
2024/01/15 11:34:08;;;;;;;121.78;83.07;;;6.20;99.90;;;;;;4957068;28;20128;-74
2024/01/15 11:36:49;;;;;;;127.63;84.53;;;6.30;99.90;;;;;;4974057;28;20026;-73
2024/01/15 11:39:27;;;;;;;112.07;80.18;;;6.40;99.90;;;;;;4956296;28;20035;-74
2024/01/15 11:42:01;;;;;;;109.05;76.43;;;6.30;99.90;;;;;;4954797;29;20047;-73
2024/01/15 11:44:27;;;;;;;127.05;80.35;;;6.40;99.90;;;;;;4955076;29;20380;-73
2024/01/15 11:46:56;;;;;;;113.22;77.05;;;6.50;99.90;;;;;;4954416;29;20023;-73
2024/01/15 11:49:53;;;;;;;123.68;81.57;;;6.60;99.90;;;;;;4954977;29;20145;-73
2024/01/15 11:52:20;;;;;;;117.80;80.68;;;6.70;99.90;;;;;;4945774;29;20524;-74
2024/01/15 11:55:05;;;;;;;114.07;78.20;;;6.80;99.90;;;;;;4954819;29;20031;-73
2024/01/15 11:57:47;;;;;;;113.63;79.28;;;6.90;99.90;;;;;;4954673;29;20427;-73
2024/01/15 12:00:14;;;;;;;140.97;94.63;;;7.00;99.90;;;;;;4954641;29;20107;-74
2024/01/15 12:02:41;;;;;;;200.10;129.38;;;7.10;99.90;;;;;;4954770;29;20035;-73
2024/01/15 12:05:12;;;;;;;183.90;129.95;;;7.00;99.90;;;;;;4921556;29;20039;-73
2024/01/15 12:07:42;;;;;;;192.23;137.82;;;7.00;99.90;;;;;;4954592;29;20027;-74
2024/01/15 12:10:13;;;;;;;200.75;138.82;;;7.00;99.90;;;;;;4948324;29;20121;-74
2024/01/15 12:13:02;;;;;;;162.90;120.28;;;6.90;99.90;;;;;;4936581;29;20480;-74
2024/01/15 12:15:29;;;;;;;130.60;91.85;;;6.90;99.90;;;;;;4947092;29;20039;-73
2024/01/15 12:18:02;;;;;;;141.60;99.60;;;6.80;99.90;;;;;;4940266;29;20083;-73
2024/01/15 12:20:29;;;;;;;;;;;6.80;99.90;;;;;;4940281;29;20049;-73
2024/01/15 12:22:55;;;;;;;176.77;126.97;;;6.70;99.90;;;;;;4937385;29;20367;-77
2024/01/15 12:25:22;;;;;;;194.15;135.57;;;6.60;99.90;;;;;;4954370;29;20023;-74
2024/01/15 12:27:49;;;;;;;185.90;137.40;;;6.50;99.90;;;;;;4949047;29;20059;-74
2024/01/15 12:30:15;;;;;;;180.65;136.05;;;6.50;99.90;;;;;;4932166;29;20475;-74
2024/01/15 12:32:41;;;;;;;164.93;115.45;;;6.40;99.90;;;;;;4948655;29;20066;-73
2024/01/15 12:35:08;;;;;;;141.48;104.25;;;6.20;99.90;;;;;;4949852;29;20086;-74